createdAt,value
2022-11-13T00:00:48.413Z,2.20
2022-11-13T00:03:36.514Z,2.43
2022-11-13T00:06:23.728Z,2.80
2022-11-13T00:09:12.555Z,3.73
2022-11-13T00:11:59.575Z,3.50
2022-11-13T00:14:47.445Z,4.07
2022-11-13T00:17:35.485Z,2.60
2022-11-13T00:20:24.029Z,2.93
2022-11-13T00:23:10.989Z,3.27
2022-11-13T00:25:57.597Z,3.80
2022-11-13T00:28:44.982Z,3.17
2022-11-13T00:31:32.063Z,2.13
2022-11-13T00:34:47.204Z,2.97
2022-11-13T00:37:27.046Z,2.60
2022-11-13T00:40:14.174Z,2.77
2022-11-13T00:43:01.093Z,2.33
2022-11-13T00:45:47.823Z,2.47
2022-11-13T00:48:34.524Z,3.47
2022-11-13T00:51:21.492Z,2.73
2022-11-13T00:54:09.675Z,2.60
2022-11-13T00:56:56.513Z,2.33
2022-11-13T00:59:43.111Z,2.30
2022-11-13T01:02:29.849Z,2.80
2022-11-13T01:05:16.907Z,2.07
2022-11-13T01:08:05.193Z,2.20
2022-11-13T01:10:53.951Z,1.80
2022-11-13T01:13:41.726Z,2.40
2022-11-13T01:16:29.520Z,2.80
2022-11-13T01:19:18.420Z,2.43
2022-11-13T01:22:05.316Z,2.37
2022-11-13T01:24:52.006Z,2.70
2022-11-13T01:27:40.330Z,2.50
2022-11-13T01:30:27.404Z,2.47
2022-11-13T01:33:15.266Z,2.57
2022-11-13T01:36:04.158Z,2.43
2022-11-13T01:38:51.811Z,2.60
2022-11-13T01:41:38.895Z,2.67
2022-11-13T01:44:27.459Z,2.50
2022-11-13T01:47:15.402Z,3.20
2022-11-13T01:50:03.497Z,3.10
2022-11-13T01:52:50.401Z,2.50
2022-11-13T01:55:37.756Z,2.00
2022-11-13T01:58:24.983Z,3.10
2022-11-13T02:01:13.653Z,2.27
2022-11-13T02:04:00.596Z,2.57
2022-11-13T02:06:52.628Z,2.77
2022-11-13T02:09:42.306Z,3.43
2022-11-13T02:12:34.864Z,2.57
2022-11-13T02:15:25.884Z,2.37
2022-11-13T02:18:16.858Z,2.70
2022-11-13T02:21:11.644Z,3.03
2022-11-13T02:24:05.856Z,2.50
2022-11-13T02:26:57.868Z,2.70
2022-11-13T02:29:45.562Z,2.00
2022-11-13T02:32:33.500Z,1.67
2022-11-13T02:35:25.151Z,2.70
2022-11-13T02:38:12.039Z,2.43
2022-11-13T02:40:58.822Z,2.90
2022-11-13T02:43:47.590Z,2.43
2022-11-13T02:46:35.962Z,2.47
2022-11-13T02:49:22.960Z,2.70
2022-11-13T02:52:09.784Z,3.10
2022-11-13T02:54:56.755Z,2.40
2022-11-13T02:57:45.087Z,2.97
2022-11-13T03:00:33.520Z,3.10
2022-11-13T03:03:41.033Z,2.83
2022-11-13T03:06:27.352Z,3.20
2022-11-13T03:09:14.215Z,2.37
2022-11-13T03:12:00.957Z,3.57
2022-11-13T03:14:47.878Z,2.83
2022-11-13T03:17:36.581Z,2.57
2022-11-13T03:20:23.608Z,2.67
2022-11-13T03:23:11.326Z,2.97
2022-11-13T03:25:58.381Z,3.30
2022-11-13T03:28:45.180Z,3.10
2022-11-13T03:31:31.963Z,3.10
2022-11-13T03:34:20.742Z,2.73
2022-11-13T03:37:07.795Z,3.10
2022-11-13T03:39:54.954Z,2.70
2022-11-13T03:42:42.362Z,2.90
2022-11-13T03:45:29.018Z,2.80
2022-11-13T03:48:17.865Z,3.13
2022-11-13T03:51:06.769Z,3.40
2022-11-13T03:53:53.538Z,2.90
2022-11-13T03:56:40.766Z,2.63
2022-11-13T03:59:27.865Z,3.10
2022-11-13T04:02:15.036Z,2.40
2022-11-13T04:05:02.089Z,3.13
2022-11-13T04:07:51.276Z,3.00
2022-11-13T04:10:38.172Z,2.57
2022-11-13T04:13:25.653Z,2.87
2022-11-13T04:16:13.657Z,2.97
2022-11-13T04:19:01.005Z,2.63
2022-11-13T04:21:47.772Z,3.37
2022-11-13T04:24:36.053Z,2.73
2022-11-13T04:27:23.305Z,3.20
2022-11-13T04:30:11.453Z,2.83
2022-11-13T04:32:58.465Z,2.77
2022-11-13T04:35:46.069Z,2.80
2022-11-13T04:38:34.062Z,2.90
2022-11-13T04:41:39.555Z,3.20
2022-11-13T04:44:27.231Z,2.50
2022-11-13T04:47:15.481Z,2.43
2022-11-13T04:50:02.533Z,2.90
2022-11-13T04:52:49.607Z,3.50
2022-11-13T04:55:36.761Z,3.60
2022-11-13T04:58:25.114Z,4.50
2022-11-13T05:01:12.154Z,5.67
2022-11-13T05:03:59.916Z,5.67
2022-11-13T05:06:47.285Z,5.03
2022-11-13T05:09:34.519Z,5.30
2022-11-13T05:12:22.770Z,5.00
2022-11-13T05:15:12.253Z,4.83
2022-11-13T05:17:59.669Z,4.33
2022-11-13T05:20:46.255Z,4.57
2022-11-13T05:23:34.328Z,4.83
2022-11-13T05:26:21.154Z,4.90
2022-11-13T05:29:08.392Z,5.07
2022-11-13T05:31:57.019Z,4.60
2022-11-13T05:34:44.443Z,4.63
2022-11-13T05:37:31.851Z,4.13
2022-11-13T05:40:21.573Z,4.03
2022-11-13T05:43:08.739Z,4.00
2022-11-13T05:46:01.316Z,3.70
2022-11-13T05:48:54.609Z,4.13
2022-11-13T05:51:41.551Z,4.13
2022-11-13T05:54:28.443Z,4.87
2022-11-13T05:57:15.801Z,4.67
2022-11-13T06:00:03.218Z,4.10
2022-11-13T06:02:50.654Z,4.57
2022-11-13T06:05:39.234Z,3.80
2022-11-13T06:08:27.363Z,3.90
2022-11-13T06:11:16.825Z,3.83
2022-11-13T06:14:04.002Z,2.60
2022-11-13T06:16:52.074Z,3.60
2022-11-13T06:19:38.685Z,3.13
2022-11-13T06:22:29.477Z,3.63
2022-11-13T06:25:16.953Z,3.50
2022-11-13T06:28:04.326Z,3.60
2022-11-13T06:30:50.885Z,3.40
2022-11-13T06:33:38.723Z,3.20
2022-11-13T06:36:27.845Z,3.43
2022-11-13T06:39:16.585Z,2.83
2022-11-13T06:42:04.351Z,3.20
2022-11-13T06:44:51.644Z,3.20
2022-11-13T06:47:39.381Z,3.03
2022-11-13T06:50:26.754Z,3.37
2022-11-13T06:53:14.761Z,3.97
2022-11-13T06:56:06.346Z,3.13
2022-11-13T06:58:55.616Z,3.93
2022-11-13T07:01:43.153Z,2.90
2022-11-13T07:04:30.244Z,3.07
2022-11-13T07:07:17.786Z,3.00
2022-11-13T07:10:07.413Z,3.43
2022-11-13T07:13:00.220Z,2.63
2022-11-13T07:15:47.364Z,3.17
2022-11-13T07:18:34.759Z,3.20
2022-11-13T07:21:22.998Z,2.83
2022-11-13T07:24:15.578Z,2.67
2022-11-13T07:27:03.756Z,2.70
2022-11-13T07:29:52.131Z,3.00
2022-11-13T07:32:39.632Z,2.80
2022-11-13T07:35:29.521Z,3.47
2022-11-13T07:38:16.669Z,3.13
2022-11-13T07:41:04.131Z,2.63
2022-11-13T07:43:51.010Z,2.60
2022-11-13T07:46:39.481Z,2.30
2022-11-13T07:49:26.523Z,3.03
2022-11-13T07:52:14.012Z,2.43
2022-11-13T07:55:01.556Z,2.93
2022-11-13T07:57:48.978Z,2.73
2022-11-13T08:00:36.726Z,2.73
2022-11-13T08:03:25.453Z,2.40
2022-11-13T08:06:14.350Z,2.30
2022-11-13T08:09:02.881Z,2.67
2022-11-13T08:11:49.803Z,3.00
2022-11-13T08:14:37.224Z,2.80
2022-11-13T08:17:26.440Z,2.63
2022-11-13T08:20:15.338Z,2.50
2022-11-13T08:23:06.074Z,2.47
2022-11-13T08:25:53.081Z,3.00
2022-11-13T08:28:40.811Z,2.80
2022-11-13T08:31:28.414Z,2.50
2022-11-13T08:34:16.486Z,2.57
2022-11-13T08:37:06.264Z,2.27
2022-11-13T08:39:53.577Z,2.23
2022-11-13T08:42:41.566Z,2.43
2022-11-13T08:45:30.953Z,2.60
2022-11-13T08:48:19.022Z,2.93
2022-11-13T08:51:07.444Z,3.33
2022-11-13T08:53:56.104Z,2.70
2022-11-13T08:56:43.909Z,2.67
2022-11-13T08:59:32.511Z,2.53
2022-11-13T09:02:19.581Z,3.77
2022-11-13T09:05:09.238Z,2.63
2022-11-13T09:07:58.961Z,2.40
2022-11-13T09:10:48.821Z,2.90
2022-11-13T09:13:43.981Z,2.97
2022-11-13T09:16:33.906Z,2.60
2022-11-13T09:19:21.312Z,2.77
2022-11-13T09:22:11.936Z,2.50
2022-11-13T09:24:58.838Z,3.60
2022-11-13T09:27:56.009Z,4.03
2022-11-13T09:30:43.488Z,4.10
2022-11-13T09:33:30.520Z,4.00
2022-11-13T09:36:18.248Z,4.37
2022-11-13T09:39:07.838Z,4.30
2022-11-13T09:42:00.492Z,4.20
2022-11-13T09:44:52.820Z,4.67
2022-11-13T09:47:44.651Z,3.50
2022-11-13T09:50:38.650Z,4.07
2022-11-13T09:53:27.555Z,5.23
2022-11-13T09:56:35.788Z,4.97
2022-11-13T09:59:30.299Z,4.30
2022-11-13T10:02:26.747Z,4.70
2022-11-13T10:05:22.611Z,3.57
2022-11-13T10:08:20.721Z,4.17
2022-11-13T10:11:17.529Z,3.80
2022-11-13T10:14:14.461Z,3.57
2022-11-13T10:17:09.109Z,3.50
2022-11-13T10:20:01.280Z,3.00
2022-11-13T10:22:52.276Z,2.93
2022-11-13T10:25:43.103Z,3.10
2022-11-13T10:31:47.114Z,2.77
2022-11-13T10:34:35.947Z,2.80
2022-11-13T10:37:41.728Z,2.90
2022-11-13T10:40:30.389Z,2.70
2022-11-13T10:43:20.119Z,2.83
2022-11-13T10:46:09.573Z,2.87
2022-11-13T10:48:57.746Z,2.90
2022-11-13T10:51:45.437Z,2.63
2022-11-13T10:54:34.764Z,2.40
2022-11-13T10:57:30.596Z,2.73
2022-11-13T11:00:23.013Z,2.80
2022-11-13T11:03:18.748Z,2.90
2022-11-13T11:06:06.645Z,3.10
2022-11-13T11:08:53.497Z,3.10
2022-11-13T11:12:04.850Z,4.53
2022-11-13T11:15:22.016Z,5.20
2022-11-13T11:18:23.828Z,4.30
2022-11-13T11:21:19.374Z,4.83
2022-11-13T11:24:15.470Z,5.63
2022-11-13T11:27:09.606Z,3.23
2022-11-13T11:30:06.061Z,3.17
2022-11-13T11:32:59.118Z,2.80
2022-11-13T11:35:53.675Z,3.33
2022-11-13T11:38:50.286Z,2.90
2022-11-13T11:41:45.249Z,2.93
2022-11-13T11:44:59.472Z,3.47
2022-11-13T11:47:53.436Z,3.50
2022-11-13T11:50:54.298Z,3.30
2022-11-13T11:54:01.161Z,3.43
2022-11-13T11:56:57.648Z,3.90
2022-11-13T12:00:01.786Z,4.03
2022-11-13T12:03:24.918Z,3.30
2022-11-13T12:06:25.284Z,3.83
2022-11-13T12:09:24.667Z,3.47
2022-11-13T12:12:23.830Z,3.20
2022-11-13T12:15:22.228Z,4.47
2022-11-13T12:18:17.152Z,3.13
2022-11-13T12:21:25.233Z,3.00
2022-11-13T12:24:37.565Z,2.57
2022-11-13T12:27:33.348Z,2.90
2022-11-13T12:30:33.785Z,3.60
2022-11-13T12:33:35.603Z,2.60
2022-11-13T12:36:25.067Z,2.83
2022-11-13T12:39:31.381Z,2.30
2022-11-13T12:42:24.257Z,2.30
2022-11-13T12:45:23.423Z,2.23
2022-11-13T12:48:33.925Z,2.80
2022-11-13T12:51:23.030Z,2.23
2022-11-13T12:54:11.914Z,2.60
2022-11-13T12:57:52.134Z,4.60
2022-11-13T13:00:41.371Z,2.47
2022-11-13T13:03:45.371Z,3.30
2022-11-13T13:06:47.852Z,2.47
2022-11-13T13:09:56.798Z,2.30
2022-11-13T13:12:58.346Z,3.03
2022-11-13T13:15:49.180Z,2.73
2022-11-13T13:18:39.149Z,2.70
2022-11-13T13:21:29.228Z,2.57
2022-11-13T13:24:34.199Z,2.90
2022-11-13T13:27:36.325Z,2.57
2022-11-13T13:30:26.670Z,2.60
2022-11-13T13:33:27.277Z,2.60
2022-11-13T13:36:28.766Z,3.20
2022-11-13T13:39:31.106Z,10.83
2022-11-13T13:42:38.285Z,14.60
2022-11-13T13:45:36.656Z,11.17
2022-11-13T13:48:28.570Z,3.80
2022-11-13T13:51:28.969Z,5.10
2022-11-13T13:54:21.184Z,3.67
2022-11-13T13:57:14.777Z,3.70
2022-11-13T14:00:03.581Z,3.37
2022-11-13T14:02:52.250Z,3.70
2022-11-13T14:05:39.225Z,3.50
2022-11-13T14:08:30.719Z,3.90
2022-11-13T14:11:20.549Z,3.10
2022-11-13T14:14:17.048Z,4.17
2022-11-13T14:17:04.623Z,3.57
2022-11-13T14:19:52.205Z,3.60
2022-11-13T14:22:45.044Z,3.93
2022-11-13T14:25:34.631Z,3.97
2022-11-13T14:28:23.804Z,4.37
2022-11-13T14:31:14.274Z,4.70
2022-11-13T14:34:11.305Z,4.20
2022-11-13T14:37:19.106Z,3.80
2022-11-13T14:40:15.477Z,3.57
2022-11-13T14:43:08.972Z,4.23
2022-11-13T14:46:00.624Z,4.50
2022-11-13T14:48:55.366Z,4.67
2022-11-13T14:51:55.388Z,5.97
2022-11-13T14:55:12.913Z,5.40
2022-11-13T14:57:53.079Z,6.37
2022-11-13T15:00:41.374Z,6.87
2022-11-13T15:03:56.650Z,6.97
2022-11-13T15:06:44.614Z,6.03
2022-11-13T15:09:35.698Z,5.33
2022-11-13T17:41:47.865Z,11.43
2022-11-13T17:44:37.477Z,11.83
2022-11-13T17:47:24.616Z,12.63
2022-11-13T17:50:11.993Z,11.33
2022-11-13T17:52:59.225Z,10.87
2022-11-13T17:55:54.485Z,14.77
2022-11-13T17:58:42.967Z,15.33
2022-11-13T18:01:33.891Z,30.20
2022-11-13T18:04:21.463Z,23.80
2022-11-13T18:07:08.550Z,13.47
2022-11-13T18:09:55.731Z,16.57
2022-11-13T18:12:42.602Z,15.60
2022-11-13T18:15:29.484Z,14.53
2022-11-13T18:18:18.172Z,12.40
2022-11-13T18:21:22.381Z,13.80
2022-11-13T18:24:15.094Z,14.50
2022-11-13T18:27:02.382Z,12.80
2022-11-13T18:29:49.158Z,12.40
2022-11-13T18:32:36.110Z,12.73
2022-11-13T18:35:24.782Z,10.53
2022-11-13T18:38:11.566Z,11.63
2022-11-13T18:41:03.318Z,12.00
2022-11-13T18:43:52.078Z,13.17
2022-11-13T18:46:40.221Z,10.17
2022-11-13T18:49:26.892Z,10.63
2022-11-13T18:52:15.836Z,10.43
2022-11-13T18:55:03.755Z,6.87
2022-11-13T18:57:50.532Z,6.67
2022-11-13T19:00:37.733Z,6.17
2022-11-13T19:03:25.518Z,5.30
2022-11-13T19:06:15.414Z,5.97
2022-11-13T19:09:06.009Z,6.07
2022-11-13T19:11:55.547Z,5.50
2022-11-13T19:14:42.446Z,7.63
2022-11-13T19:17:29.363Z,7.33
2022-11-13T19:20:18.733Z,6.50
2022-11-13T19:23:09.160Z,6.23
2022-11-13T19:25:57.878Z,6.17
2022-11-13T19:28:47.927Z,8.10
2022-11-13T19:31:35.493Z,10.77
2022-11-13T19:34:22.298Z,11.07
2022-11-13T19:37:11.204Z,7.67
2022-11-13T19:40:00.686Z,7.03
2022-11-13T19:42:49.053Z,6.80
2022-11-13T19:45:37.173Z,6.13
2022-11-13T19:48:32.577Z,5.30
2022-11-13T19:51:24.208Z,4.90
2022-11-13T19:54:20.901Z,5.67
2022-11-13T19:57:08.067Z,4.83
2022-11-13T19:59:56.518Z,4.77
2022-11-13T20:02:43.804Z,4.90
2022-11-13T20:05:30.752Z,4.90
2022-11-13T20:08:18.905Z,4.90
2022-11-13T20:11:07.515Z,5.80
2022-11-13T20:13:54.815Z,4.17
2022-11-13T20:16:43.251Z,5.10
2022-11-13T20:19:30.703Z,5.20
2022-11-13T20:22:18.286Z,4.77
2022-11-13T20:25:05.447Z,4.37
2022-11-13T20:27:52.640Z,4.73
2022-11-13T20:30:43.463Z,5.03
2022-11-13T20:33:33.526Z,5.40
2022-11-13T20:36:21.378Z,4.53
2022-11-13T20:39:09.563Z,4.47
2022-11-13T20:41:56.498Z,3.63
2022-11-13T20:44:43.294Z,3.90
2022-11-13T20:47:30.879Z,3.50
2022-11-13T20:50:20.830Z,4.47
2022-11-13T20:53:08.236Z,6.43
2022-11-13T20:55:56.223Z,4.97
2022-11-13T20:58:44.353Z,3.90
2022-11-13T21:01:37.223Z,3.60
2022-11-13T21:04:24.232Z,4.13
2022-11-13T21:07:13.039Z,5.50
2022-11-13T21:10:00.518Z,7.03
2022-11-13T21:12:47.543Z,12.00
2022-11-13T21:15:34.298Z,7.63
2022-11-13T21:18:22.206Z,9.20
2022-11-13T21:21:10.443Z,10.23
2022-11-13T21:23:59.750Z,9.03
2022-11-13T21:26:49.650Z,7.03
2022-11-13T21:29:37.184Z,8.40
2022-11-13T21:32:24.112Z,8.27
2022-11-13T21:35:11.219Z,9.10
2022-11-13T21:37:58.024Z,10.30
2022-11-13T21:41:06.488Z,8.20
2022-11-13T21:43:58.427Z,8.40
2022-11-13T21:46:45.912Z,8.77
2022-11-13T21:49:32.720Z,8.50
2022-11-13T21:52:19.613Z,8.17
2022-11-13T21:55:07.298Z,7.13
2022-11-13T21:57:55.660Z,7.77
2022-11-13T22:00:42.489Z,6.40
2022-11-13T22:03:30.041Z,6.53
2022-11-13T22:06:20.269Z,6.00
2022-11-13T22:09:08.830Z,5.80
2022-11-13T22:11:55.855Z,5.50
2022-11-13T22:14:44.310Z,4.60
2022-11-13T22:17:31.216Z,3.97
2022-11-13T22:20:18.097Z,4.30
2022-11-13T22:23:06.570Z,4.13
2022-11-13T22:26:02.231Z,4.97
2022-11-13T22:28:50.344Z,3.97
2022-11-13T22:31:39.067Z,3.97
2022-11-13T22:34:27.113Z,4.27
2022-11-13T22:37:13.978Z,5.10
2022-11-13T22:40:00.730Z,4.43
2022-11-13T22:42:47.913Z,4.60
2022-11-13T22:45:34.978Z,3.80
2022-11-13T22:48:23.126Z,4.63
2022-11-13T22:51:13.472Z,4.53
2022-11-13T22:54:02.365Z,4.70
2022-11-13T22:56:49.521Z,4.03
2022-11-13T22:59:36.415Z,4.80
2022-11-13T23:02:24.833Z,3.93
2022-11-13T23:05:13.016Z,4.80
2022-11-13T23:08:00.068Z,4.70
2022-11-13T23:10:53.722Z,4.43
2022-11-13T23:13:42.571Z,5.00
2022-11-13T23:16:30.460Z,4.47
2022-11-13T23:19:17.562Z,4.00
2022-11-13T23:22:06.048Z,4.07
2022-11-13T23:24:53.856Z,3.93
2022-11-13T23:27:40.557Z,5.17
2022-11-13T23:30:27.671Z,4.50
2022-11-13T23:33:14.623Z,6.83
2022-11-13T23:36:02.073Z,9.20
2022-11-13T23:38:50.363Z,9.53
2022-11-13T23:41:37.319Z,10.17
2022-11-13T23:44:25.742Z,8.47
2022-11-13T23:47:12.731Z,8.03
2022-11-13T23:50:00.729Z,7.30
2022-11-13T23:53:22.288Z,6.10
2022-11-13T23:56:12.523Z,7.00
2022-11-13T23:59:07.858Z,7.07
